Terminal Aerodrome Forecast
Issued by NWS Shreveport, LA

Home | Current Version | Previous Version | Text Only | Print | Product List | Glossary On
Versions: 1 2 3 4 5 6 7 8 9 10 11 12 13 14 15 16 17 18 19 20 21
000
FTUS44 KSHV 191700
TAFTYR
TAF
KTYR 191740Z 1918/2018 10005KT P6SM BKN035
     FM192000 09007KT P6SM SCT045
     FM200100 14004KT P6SM BKN250
     FM200900 15004KT 6SM BR SCT007
      TEMPO 2010/2014 3SM BR BKN007
     FM201500 14006KT P6SM FEW020=

USA.gov is the U.S. government's official web portal to all federal, state and local government web resources and services.